Time;durP1;ratioP1;P1;durP2;ratioP2;P2;SDS_P1;SDS_P2;PMS_P1;PMS_P2;Temp;Humidity;BMP_temperature;BMP_pressure;BME280_temperature;BME280_humidity;BME280_pressure;Samples;Min_cycle;Max_cycle;Signal;HPM_P1;HPM_P2
2022/01/20 00:02:07;;;;;;;8.50;6.70;;;;;;;0.47;100.00;96625.53;5051086;28;20457;-75
2022/01/20 00:04:47;;;;;;;9.70;6.93;;;;;;;0.27;100.00;96599.47;5051551;28;20475;-75
2022/01/20 00:26:24;;;;;;;7.17;5.70;;;;;;;0.42;100.00;96624.75;5053405;28;20471;-75
2022/01/20 00:28:55;;;;;;;8.60;7.70;;;;;;;0.36;100.00;96612.75;5036993;28;20455;-75
2022/01/20 00:31:45;;;;;;;7.90;5.57;;;;;;;0.25;100.00;96609.31;5053594;28;20464;-75
2022/01/20 00:34:18;;;;;;;13.60;6.60;;;;;;;0.47;100.00;96635.94;5053194;28;20456;-75
2022/01/20 00:39:31;;;;;;;9.73;6.70;;;;;;;0.28;100.00;96617.41;5054759;28;20452;-75
2022/01/20 00:41:58;;;;;;;9.73;6.77;;;;;;;0.27;100.00;96604.66;5053275;28;20991;-75
2022/01/20 00:44:25;;;;;;;7.57;6.87;;;;;;;0.53;100.00;96647.94;5053098;28;21031;-75
2022/01/20 00:46:52;;;;;;;7.03;5.73;;;;;;;0.45;100.00;96640.63;5036794;28;20551;-75
2022/01/20 00:49:19;;;;;;;5.47;4.67;;;;;;;0.47;100.00;96646.34;5053505;28;20941;-75
2022/01/20 00:51:46;;;;;;;10.87;6.67;;;;;;;0.37;100.00;96632.50;5053071;28;20986;-75
2022/01/20 00:54:18;;;;;;;4.90;4.40;;;;;;;0.28;100.00;96624.44;5037135;28;20511;-75
2022/01/20 00:56:45;;;;;;;5.60;4.03;;;;;;;0.46;100.00;96651.81;5036484;28;20497;-75
2022/01/20 00:59:13;;;;;;;6.03;5.40;;;;;;;0.28;100.00;96624.44;5037767;28;20449;-75
2022/01/20 01:01:40;;;;;;;5.10;4.67;;;;;;;0.28;100.00;96629.63;5052934;28;20444;-75
2022/01/20 01:04:08;;;;;;;7.10;4.77;;;;;;;0.17;100.00;96615.00;5036497;28;20845;-75
2022/01/20 01:09:06;;;;;;;5.20;4.70;;;;;;;0.30;100.00;96635.34;5052652;28;20445;-75
2022/01/20 01:11:33;;;;;;;4.30;3.90;;;;;;;0.39;100.00;96651.25;5052690;28;20477;-75
2022/01/20 01:14:02;;;;;;;5.37;4.73;;;;;;;0.33;100.00;96647.84;5052496;28;20493;-75
2022/01/20 01:20:02;;;;;;;3.63;3.33;;;;;;;0.32;100.00;96658.50;5036109;28;20461;-75
2022/01/20 01:24:43;;;;;;;5.07;3.97;;;;;;;0.35;100.00;96673.59;5052413;28;20437;-75
2022/01/20 01:27:12;;;;;;;3.13;2.83;;;;;;;0.38;100.00;96670.47;5035821;28;20548;-75
2022/01/20 01:30:03;;;;;;;4.13;3.43;;;;;;;-0.05;100.00;96600.31;5052379;28;20548;-75
2022/01/20 01:32:46;;;;;;;4.20;3.77;;;;;;;0.17;100.00;96636.59;5052235;28;20544;-75
2022/01/20 01:35:14;;;;;;;2.83;2.63;;;;;;;0.20;100.00;96633.47;5052166;28;20445;-75
2022/01/20 01:40:11;;;;;;;2.50;2.30;;;;;;;0.25;100.00;96628.28;5052084;28;20793;-75
2022/01/20 01:42:46;;;;;;;2.53;2.33;;;;;;;0.26;100.00;96629.84;5052492;28;20775;-75
2022/01/20 01:45:18;;;;;;;2.40;2.20;;;;;;;0.38;100.00;96658.25;5052195;28;20948;-75
2022/01/20 01:47:47;;;;;;;2.63;2.20;;;;;;;0.37;100.00;96667.09;5035511;28;20491;-75
2022/01/20 01:50:17;;;;;;;3.63;3.23;;;;;;;0.32;100.00;96668.91;5051891;28;20498;-75
2022/01/20 01:52:44;;;;;;;2.17;2.03;;;;;;;0.38;100.00;96658.25;5052085;28;21047;-75
2022/01/20 01:55:11;;;;;;;3.90;2.97;;;;;;;0.39;100.00;96659.81;5051781;28;20553;-75
2022/01/20 01:57:40;;;;;;;2.70;2.37;;;;;;;0.27;100.00;96622.88;5035637;28;20520;-75
2022/01/20 02:00:10;;;;;;;1.80;1.70;;;;;;;0.38;100.00;96636.69;5035686;28;20568;-75
2022/01/20 02:02:43;;;;;;;3.40;2.57;;;;;;;0.21;100.00;96616.06;5035925;28;20908;-75
2022/01/20 02:05:18;;;;;;;2.23;2.03;;;;;;;0.33;100.00;96632.25;5052053;28;20427;-75
2022/01/20 02:19:19;;;;;;;3.60;3.30;;;;;;;0.33;100.00;96621.84;5052200;28;20864;-75
2022/01/20 02:21:54;;;;;;;2.00;1.90;;;;;;;0.20;100.00;96607.47;5052307;28;20444;-75
2022/01/20 02:24:24;;;;;;;4.03;3.37;;;;;;;0.40;100.00;96637.19;5052223;28;20483;-75
2022/01/20 02:26:51;;;;;;;3.30;3.00;;;;;;;0.24;100.00;96602.56;5052031;28;21055;-75
2022/01/20 02:29:34;;;;;;;3.00;2.47;;;;;;;0.39;100.00;96617.44;5052144;28;20546;-75
2022/01/20 02:32:00;;;;;;;2.43;2.33;;;;;;;0.24;100.00;96605.16;5051805;28;20453;-75
2022/01/20 02:34:30;;;;;;;2.97;2.77;;;;;;;0.50;100.00;96634.66;5035034;28;20547;-75
2022/01/20 02:37:05;;;;;;;3.63;3.33;;;;;;;0.26;100.00;96590.06;5051753;28;20488;-75
2022/01/20 02:44:51;;;;;;;2.80;2.03;;;;;;;0.54;100.00;96652.13;5051775;28;20434;-75
2022/01/20 02:47:20;;;;;;;3.43;2.27;;;;;;;0.49;100.00;96638.28;5035234;28;20461;-75
2022/01/20 02:49:47;;;;;;;5.37;4.73;;;;;;;0.49;100.00;96631.28;5035283;28;20438;-75
2022/01/20 02:52:14;;;;;;;3.97;3.63;;;;;;;0.44;100.00;96614.88;5051813;28;20559;-75
2022/01/20 02:54:42;;;;;;;4.70;4.30;;;;;;;0.52;100.00;96656.75;5051760;28;20457;-75
2022/01/20 02:57:09;;;;;;;4.83;4.43;;;;;;;0.55;100.00;96638.06;5051970;28;20492;-75
2022/01/20 02:59:36;;;;;;;4.80;4.30;;;;;;;0.42;100.00;96612.53;5051774;28;20445;-75
2022/01/20 03:02:05;;;;;;;4.10;3.43;;;;;;;0.42;100.00;96609.94;5035437;28;20437;-75
2022/01/20 03:04:32;;;;;;;5.00;4.60;;;;;;;0.39;100.00;96597.41;5035924;28;20437;-75
2022/01/20 03:07:03;;;;;;;4.10;3.70;;;;;;;0.62;100.00;96631.84;5053028;28;20456;-75
2022/01/20 03:09:30;;;;;;;3.73;3.43;;;;;;;0.44;100.00;96604.47;5052873;28;20972;-75
2022/01/20 03:11:56;;;;;;;4.67;4.30;;;;;;;0.45;100.00;96601.63;5036084;28;21284;-75
2022/01/20 03:14:23;;;;;;;4.47;4.07;;;;;;;0.24;100.00;96556.53;5054476;28;20536;-75
2022/01/20 03:16:50;;;;;;;4.97;4.57;;;;;;;0.50;100.00;96603.44;5054784;28;20461;-75
2022/01/20 03:19:17;;;;;;;5.03;4.53;;;;;;;0.60;100.00;96621.69;5058701;28;20454;-75
2022/01/20 03:21:44;;;;;;;3.60;3.23;;;;;;;0.70;100.00;96631.34;5057628;28;20437;-75
2022/01/20 03:24:11;;;;;;;4.00;3.60;;;;;;;0.67;100.00;96614.44;5040544;28;20506;-75
2022/01/20 03:26:40;;;;;;;4.57;4.03;;;;;;;0.60;100.00;96613.88;5051411;28;20457;-75
2022/01/20 03:29:09;;;;;;;4.70;4.30;;;;;;;0.76;100.00;96636.31;5051314;28;20433;-75
2022/01/20 03:31:37;;;;;;;6.40;3.20;;;;;;;0.73;100.00;96636.81;5034753;28;20995;-75
2022/01/20 03:34:06;;;;;;;4.20;3.80;;;;;;;0.51;100.00;96616.19;5034574;28;20476;-75
2022/01/20 03:36:35;;;;;;;4.47;4.10;;;;;;;0.45;100.00;96596.41;5050762;28;20450;-75
2022/01/20 03:39:06;;;;;;;4.30;3.70;;;;;;;0.33;100.00;96567.25;5034419;28;20437;-75
2022/01/20 03:41:35;;;;;;;4.20;3.80;;;;;;;0.74;100.00;96637.59;5035366;28;20521;-75
2022/01/20 03:44:08;;;;;;;4.87;3.50;;;;;;;0.26;100.00;96561.47;5050311;28;20502;-75
2022/01/20 03:46:35;;;;;;;4.17;3.77;;;;;;;0.53;100.00;96593.31;5037405;28;20495;-75
2022/01/20 03:49:20;;;;;;;4.00;3.70;;;;;;;0.59;100.00;96600.09;5054003;28;20436;-75
2022/01/20 03:51:47;;;;;;;4.17;3.77;;;;;;;0.66;100.00;96607.66;5054085;28;20478;-75
2022/01/20 03:54:14;;;;;;;4.73;4.33;;;;;;;0.51;100.00;96560.78;5037336;28;20460;-75
2022/01/20 03:56:59;;;;;;;4.13;3.83;;;;;;;0.81;100.00;96609.53;5054382;28;20459;-75
2022/01/20 03:59:49;;;;;;;5.27;4.70;;;;;;;0.89;100.00;96624.63;5055168;28;20455;-75
2022/01/20 04:02:22;;;;;;;4.47;4.07;;;;;;;0.86;100.00;96617.34;5053666;28;20488;-75
2022/01/20 04:04:54;;;;;;;3.57;3.27;;;;;;;0.74;100.00;96601.97;5038164;28;20486;-75
2022/01/20 04:07:27;;;;;;;4.07;3.77;;;;;;;0.66;100.00;96584.25;5037936;28;21042;-75
2022/01/20 04:09:54;;;;;;;6.00;4.80;;;;;;;0.92;100.00;96611.09;5037073;28;20499;-76
2022/01/20 04:12:20;;;;;;;4.47;3.97;;;;;;;0.68;100.00;96586.59;5037181;28;20472;-75
2022/01/20 04:14:48;;;;;;;4.20;3.80;;;;;;;0.84;100.00;96614.22;5053408;28;20826;-75
2022/01/20 04:17:20;;;;;;;5.00;4.50;;;;;;;0.91;100.00;96619.16;5053763;28;20495;-75
2022/01/20 04:19:47;;;;;;;5.20;4.80;;;;;;;0.80;100.00;96608.75;5053692;28;20429;-76
2022/01/20 04:22:14;;;;;;;3.67;3.37;;;;;;;0.62;100.00;96570.19;5053308;28;20448;-75
2022/01/20 04:24:46;;;;;;;4.70;3.80;;;;;;;0.78;100.00;96603.00;5053540;28;20409;-76
2022/01/20 04:27:13;;;;;;;3.10;2.80;;;;;;;0.83;100.00;96605.63;5036739;28;20453;-75
2022/01/20 04:29:39;;;;;;;6.27;3.87;;;;;;;0.60;100.00;96572.25;5055217;28;20551;-75
2022/01/20 04:32:06;;;;;;;3.87;3.50;;;;;;;0.85;100.00;96613.97;5053743;28;20483;-75
2022/01/20 04:34:33;;;;;;;5.40;3.83;;;;;;;0.79;100.00;96601.19;5054610;28;20465;-75
2022/01/20 04:37:04;;;;;;;6.60;4.13;;;;;;;0.61;100.00;96578.25;5053269;28;20480;-75
2022/01/20 04:39:34;;;;;;;4.33;3.57;;;;;;;0.54;100.00;96568.88;5053173;28;20441;-75
2022/01/20 04:42:00;;;;;;;3.40;2.93;;;;;;;0.61;100.00;96581.63;5037521;28;20481;-76
2022/01/20 04:44:38;;;;;;;3.43;3.13;;;;;;;0.71;100.00;96594.69;5053286;28;20942;-75
2022/01/20 04:58:08;;;;;;;6.63;3.60;;;;;;;0.66;100.00;96593.88;5053973;28;20522;-75
2022/01/20 05:00:36;;;;;;;3.83;3.53;;;;;;;0.73;100.00;96597.81;5052881;28;20453;-75
2022/01/20 05:03:21;;;;;;;8.20;3.73;;;;;;;0.60;100.00;96574.88;5053404;28;20562;-75
2022/01/20 05:05:48;;;;;;;6.13;4.33;;;;;;;0.49;100.00;96562.88;5052871;28;20500;-76
2022/01/20 05:08:22;;;;;;;9.40;5.70;;;;;;;0.66;100.00;96588.66;5052651;28;20472;-76
2022/01/20 05:10:53;;;;;;;7.50;5.83;;;;;;;0.56;100.00;96579.03;5052880;28;20440;-76
2022/01/20 05:13:26;;;;;;;13.40;10.40;;;;;;;0.78;100.00;96605.59;5052509;28;21018;-76
2022/01/20 05:15:53;;;;;;;4.93;4.53;;;;;;;0.59;100.00;96568.88;5036075;28;20453;-76
2022/01/20 05:18:19;;;;;;;3.63;3.33;;;;;;;0.80;100.00;96587.13;5052448;28;20551;-76
2022/01/20 05:20:46;;;;;;;2.60;1.80;;;;;;;0.66;100.00;96573.81;5036496;28;20456;-75
2022/01/20 05:23:13;;;;;;;3.97;3.57;;;;;;;0.77;100.00;96595.47;5052431;28;20434;-75
2022/01/20 05:25:39;;;;;;;2.63;2.43;;;;;;;0.64;100.00;96588.13;5035890;28;20512;-75
2022/01/20 05:28:07;;;;;;;3.63;3.33;;;;;;;0.73;100.00;96602.22;5035846;28;20457;-76
2022/01/20 05:30:35;;;;;;;3.20;3.00;;;;;;;0.64;100.00;96593.34;5035878;28;20441;-75
2022/01/20 05:33:11;;;;;;;5.63;3.67;;;;;;;0.67;100.00;96598.84;5053807;28;20429;-76
2022/01/20 05:35:38;;;;;;;8.33;3.87;;;;;;;0.65;100.00;96587.09;5052045;28;20460;-76
2022/01/20 05:38:05;;;;;;;8.27;3.73;;;;;;;0.53;100.00;96577.69;5052090;28;20461;-76
2022/01/20 05:40:34;;;;;;;5.73;2.53;;;;;;;0.61;100.00;96591.25;5052178;28;20507;-76
2022/01/20 05:43:03;;;;;;;4.87;3.57;;;;;;;0.72;100.00;96608.47;5052044;28;20446;-76
2022/01/20 05:45:30;;;;;;;5.27;3.27;;;;;;;0.72;100.00;96609.25;5052126;28;20466;-76
2022/01/20 05:48:09;;;;;;;4.40;3.03;;;;;;;0.61;100.00;96599.84;5052550;28;20453;-76
2022/01/20 05:50:54;;;;;;;5.13;4.07;;;;;;;0.65;100.00;96585.28;5053634;28;20428;-76
2022/01/20 05:53:21;;;;;;;7.03;4.10;;;;;;;0.63;100.00;96589.97;5051950;28;20445;-76
2022/01/20 05:55:49;;;;;;;9.13;3.23;;;;;;;0.37;100.00;96570.88;5051764;28;20461;-76
2022/01/20 05:58:15;;;;;;;4.47;3.73;;;;;;;0.54;100.00;96602.69;5035193;28;20463;-76
2022/01/20 06:00:42;;;;;;;4.33;3.93;;;;;;;0.40;100.00;96562.59;5051728;28;20438;-76
2022/01/20 06:05:55;;;;;;;3.67;3.33;;;;;;;0.42;100.00;96563.13;5051540;28;20421;-75
2022/01/20 06:08:22;;;;;;;5.60;3.90;;;;;;;0.45;100.00;96582.63;5050865;28;20454;-75
2022/01/20 06:10:49;;;;;;;3.90;3.50;;;;;;;0.52;100.00;96590.97;5051687;28;20437;-75
2022/01/20 06:13:23;;;;;;;3.93;3.43;;;;;;;0.09;100.00;96527.09;5051518;28;20429;-75
2022/01/20 06:15:50;;;;;;;4.03;3.73;;;;;;;0.25;100.00;96562.50;5034774;28;20461;-75
2022/01/20 06:18:17;;;;;;;4.13;3.73;;;;;;;0.44;100.00;96597.44;5051195;28;20858;-75
2022/01/20 06:20:52;;;;;;;4.10;3.80;;;;;;;0.35;100.00;96591.16;5051386;28;20464;-75
2022/01/20 06:23:20;;;;;;;6.17;4.10;;;;;;;0.37;100.00;96573.47;5051327;28;20536;-75
2022/01/20 06:25:48;;;;;;;7.27;4.27;;;;;;;0.24;100.00;96555.75;5051574;28;20448;-75
2022/01/20 06:28:17;;;;;;;3.83;3.53;;;;;;;0.11;100.00;96538.03;5034694;28;20461;-75
2022/01/20 06:30:47;;;;;;;6.10;4.00;;;;;;;0.30;100.00;96570.34;5051299;28;20873;-75
2022/01/20 06:33:14;;;;;;;3.63;3.10;;;;;;;0.34;100.00;96565.41;5051288;28;21011;-75
2022/01/20 06:35:48;;;;;;;7.30;6.23;;;;;;;0.27;100.00;96558.66;5035523;28;20464;-75
2022/01/20 06:38:18;;;;;;;7.30;6.10;;;;;;;0.26;100.00;96551.06;5034553;28;20461;-75
2022/01/20 06:40:46;;;;;;;4.23;3.77;;;;;;;0.34;100.00;96548.00;5034663;28;20460;-75
2022/01/20 06:43:13;;;;;;;5.20;4.70;;;;;;;0.45;100.00;96559.22;5034580;28;20441;-75
2022/01/20 06:45:40;;;;;;;3.40;3.10;;;;;;;0.07;100.00;96498.78;5050844;28;20437;-75
2022/01/20 06:48:10;;;;;;;6.33;3.17;;;;;;;0.48;100.00;96572.50;5050701;28;20809;-75
2022/01/20 06:50:52;;;;;;;8.90;8.03;;;;;;;0.35;100.00;96540.97;5050871;28;20459;-75
2022/01/20 06:53:19;;;;;;;7.03;3.67;;;;;;;0.29;100.00;96532.38;5034368;28;20445;-75
2022/01/20 06:55:45;;;;;;;8.03;4.50;;;;;;;0.40;100.00;96549.59;5034209;28;20518;-75
2022/01/20 06:58:12;;;;;;;3.10;2.80;;;;;;;0.47;100.00;96560.53;5034167;28;20464;-75
2022/01/20 07:00:40;;;;;;;3.67;2.77;;;;;;;0.50;100.00;96560.00;5034506;28;20445;-75
2022/01/20 07:03:06;;;;;;;7.43;4.27;;;;;;;-0.14;100.00;96466.72;5051266;28;20455;-75
2022/01/20 07:05:33;;;;;;;9.80;8.30;;;;;;;0.38;100.00;96538.63;5034379;28;20529;-75
2022/01/20 07:08:00;;;;;;;8.50;6.10;;;;;;;0.23;100.00;96520.41;5051343;28;20511;-75
2022/01/20 07:10:27;;;;;;;8.93;6.77;;;;;;;0.33;100.00;96523.03;5051068;28;20456;-75
2022/01/20 07:12:54;;;;;;;5.70;4.77;;;;;;;0.42;100.00;96557.91;5051161;28;20499;-74
2022/01/20 07:15:21;;;;;;;3.90;2.60;;;;;;;0.47;100.00;96575.34;5034183;28;20491;-75
2022/01/20 07:17:50;;;;;;;3.10;2.80;;;;;;;0.57;100.00;96599.56;5034442;28;20469;-75
2022/01/20 07:20:19;;;;;;;6.73;6.00;;;;;;;0.35;100.00;96572.97;5049540;28;20535;-75
2022/01/20 07:23:06;;;;;;;7.00;5.37;;;;;;;0.29;100.00;96548.78;5052083;28;20432;-75
2022/01/20 07:25:44;;;;;;;9.77;4.67;;;;;;;0.47;100.00;96577.94;5035666;28;20468;-75
2022/01/20 07:28:15;;;;;;;27.83;16.23;;;;;;;0.47;100.00;96564.94;5050456;28;20830;-75
2022/01/20 07:30:42;;;;;;;48.53;30.80;;;;;;;0.53;100.00;96577.69;5050330;28;20623;-75
2022/01/20 07:33:08;;;;;;;13.20;8.40;;;;;;;0.46;100.00;96563.38;5050169;28;20475;-75
2022/01/20 07:35:38;;;;;;;12.43;11.13;;;;;;;0.42;100.00;96562.34;5050412;28;20556;-75
2022/01/20 07:38:07;;;;;;;11.33;3.87;;;;;;;0.64;100.00;96604.53;5050142;28;20461;-75
2022/01/20 07:40:35;;;;;;;6.97;4.40;;;;;;;0.51;100.00;96605.00;5050319;28;20470;-75
2022/01/20 07:43:02;;;;;;;6.30;5.40;;;;;;;0.70;100.00;96607.94;5050131;28;21035;-75
2022/01/20 07:45:40;;;;;;;7.53;5.30;;;;;;;0.51;100.00;96577.16;5050140;28;20530;-75
2022/01/20 07:48:33;;;;;;;4.00;3.23;;;;;;;0.77;100.00;96611.06;5049138;28;20469;-75
2022/01/20 07:51:08;;;;;;;10.17;4.27;;;;;;;0.70;100.00;96598.31;5050071;28;20435;-75
2022/01/20 07:53:36;;;;;;;10.93;4.40;;;;;;;0.82;100.00;96621.50;5033923;28;20436;-75
2022/01/20 07:56:05;;;;;;;10.70;4.77;;;;;;;0.85;100.00;96628.81;5033753;28;20473;-75
2022/01/20 07:58:34;;;;;;;5.33;3.80;;;;;;;0.83;100.00;96620.47;5050115;28;20489;-75
2022/01/20 08:01:01;;;;;;;7.03;3.13;;;;;;;0.87;100.00;96614.50;5033683;28;20437;-75
2022/01/20 08:03:32;;;;;;;10.87;5.63;;;;;;;0.65;100.00;96587.09;5034233;28;20476;-75
2022/01/20 08:06:09;;;;;;;7.67;3.97;;;;;;;0.89;100.00;96617.63;5035155;28;20848;-75
2022/01/20 08:08:40;;;;;;;7.20;3.53;;;;;;;0.92;100.00;96603.28;5034252;28;20897;-75
2022/01/20 08:11:25;;;;;;;5.03;3.60;;;;;;;0.81;100.00;96591.31;5051446;28;20416;-75
2022/01/20 08:14:00;;;;;;;6.97;3.40;;;;;;;0.80;100.00;96594.94;5050057;28;20456;-75
2022/01/20 08:16:27;;;;;;;6.83;4.00;;;;;;;0.86;100.00;96596.53;5033309;28;20991;-75
2022/01/20 08:18:54;;;;;;;11.17;6.90;;;;;;;1.01;100.00;96616.59;5049903;28;20861;-75
2022/01/20 08:21:21;;;;;;;9.60;3.60;;;;;;;0.76;100.00;96593.91;5049855;28;20441;-75
2022/01/20 08:23:50;;;;;;;14.50;11.30;;;;;;;1.02;100.00;96634.56;5049707;28;20449;-75
2022/01/20 08:26:16;;;;;;;7.37;4.30;;;;;;;0.87;100.00;96619.69;5049907;28;20465;-75
2022/01/20 08:28:45;;;;;;;10.77;3.90;;;;;;;1.00;100.00;96628.06;5049625;28;20525;-76
2022/01/20 08:31:12;;;;;;;8.40;3.67;;;;;;;1.06;100.00;96633.00;5035143;28;20815;-76
2022/01/20 08:33:39;;;;;;;8.83;3.73;;;;;;;0.99;100.00;96623.88;5037122;28;20448;-75
2022/01/20 08:36:12;;;;;;;8.03;4.80;;;;;;;0.81;100.00;96599.13;5053747;28;20463;-75
2022/01/20 08:38:46;;;;;;;3.57;2.67;;;;;;;1.00;100.00;96620.25;5053702;28;20527;-75
2022/01/20 08:41:13;;;;;;;6.30;3.97;;;;;;;1.00;100.00;96631.44;5053834;28;20449;-75
2022/01/20 08:43:40;;;;;;;16.27;4.57;;;;;;;0.71;100.00;96589.47;5037021;28;20571;-75
2022/01/20 08:46:13;;;;;;;6.47;3.13;;;;;;;1.04;100.00;96622.06;5038024;28;20421;-75
2022/01/20 08:48:40;;;;;;;8.00;3.73;;;;;;;0.89;100.00;96596.00;5053350;28;20499;-75
2022/01/20 08:51:08;;;;;;;10.17;3.63;;;;;;;1.11;100.00;96632.25;5054491;28;20413;-75
2022/01/20 08:53:55;;;;;;;4.93;4.03;;;;;;;0.79;100.00;96594.16;5039644;28;20450;-75
2022/01/20 08:56:25;;;;;;;7.67;4.73;;;;;;;0.76;100.00;96581.66;5036865;28;20476;-75
2022/01/20 08:58:51;;;;;;;5.57;3.00;;;;;;;0.81;100.00;96602.53;5036535;28;20960;-75
2022/01/20 09:01:19;;;;;;;12.90;4.23;;;;;;;1.01;100.00;96619.97;5052777;28;20437;-75
2022/01/20 09:03:47;;;;;;;10.43;4.40;;;;;;;1.22;100.00;96635.66;5036557;28;20799;-75
2022/01/20 09:06:16;;;;;;;6.10;3.40;;;;;;;1.26;100.00;96632.28;5052987;28;20449;-75
2022/01/20 09:09:00;;;;;;;4.47;3.27;;;;;;;1.22;100.00;96627.84;5039117;28;20511;-75
2022/01/20 09:11:37;;;;;;;4.97;3.20;;;;;;;1.13;100.00;96612.72;5052911;28;20543;-75
2022/01/20 09:16:54;;;;;;;15.67;8.13;;;;;;;0.85;100.00;96580.13;5052895;28;20568;-75
2022/01/20 09:19:24;;;;;;;10.83;3.50;;;;;;;0.93;100.00;96575.44;5052798;28;20453;-75
2022/01/20 09:21:56;;;;;;;15.93;6.90;;;;;;;0.93;100.00;96588.47;5052667;28;20433;-75
2022/01/20 09:24:23;;;;;;;28.30;15.30;;;;;;;1.14;100.00;96598.66;5052573;28;20475;-75
2022/01/20 09:26:50;;;;;;;12.23;7.33;;;;;;;1.10;100.00;96587.22;5052575;28;20461;-75
2022/01/20 09:29:17;;;;;;;13.13;4.20;;;;;;;1.28;100.00;96614.56;5052765;28;20429;-75
2022/01/20 09:31:44;;;;;;;6.63;3.50;;;;;;;1.17;100.00;96592.94;5052515;28;20467;-75
2022/01/20 09:34:19;;;;;;;10.30;4.93;;;;;;;1.48;100.00;96626.81;5052949;28;20983;-75
2022/01/20 09:36:46;;;;;;;9.47;3.00;;;;;;;1.35;100.00;96598.69;5035905;28;20469;-75
2022/01/20 09:39:13;;;;;;;7.40;3.57;;;;;;;1.64;100.00;96632.81;5052215;28;20494;-75
2022/01/20 09:42:00;;;;;;;5.07;4.37;;;;;;;1.69;100.00;96645.81;5051958;28;20441;-75
2022/01/20 09:44:31;;;;;;;5.40;3.90;;;;;;;1.84;100.00;96645.03;5052192;28;20449;-76
2022/01/20 09:46:58;;;;;;;5.60;3.60;;;;;;;1.90;100.00;96651.81;5052480;28;20461;-75
2022/01/20 09:49:45;;;;;;;7.57;3.87;;;;;;;1.73;100.00;96637.22;5052405;28;20559;-76
2022/01/20 09:52:28;;;;;;;2.70;2.47;;;;;;;1.56;100.00;96599.44;5037910;28;20457;-75
2022/01/20 09:55:18;;;;;;;6.20;3.40;;;;;;;1.75;100.00;96626.56;5038483;28;20445;-75
2022/01/20 09:57:46;;;;;;;8.20;2.90;;;;;;;1.61;100.00;96608.06;5052944;28;20461;-76
2022/01/20 10:00:15;;;;;;;5.27;2.60;;;;;;;1.86;100.00;96645.56;5037601;28;20444;-75
2022/01/20 10:03:05;;;;;;;7.40;3.53;;;;;;;1.83;100.00;96633.06;5036596;28;20527;-75
2022/01/20 10:05:38;;;;;;;6.23;2.30;;;;;;;1.64;100.00;96625.00;5052881;28;20494;-75
2022/01/20 10:08:10;;;;;;;7.97;4.40;;;;;;;1.31;100.00;96579.41;5052369;28;20522;-76
2022/01/20 10:10:49;;;;;;;16.57;9.07;;;;;;;1.68;100.00;96646.88;5036963;28;20457;-75
2022/01/20 10:13:43;;;;;;;7.30;3.23;;;;;;;1.31;100.00;96650.50;5055296;28;20457;-76
2022/01/20 10:16:30;;;;;;;9.70;3.60;;;;;;;1.02;100.00;96683.25;5056555;28;21047;-76
2022/01/20 10:19:05;;;;;;;6.33;3.50;;;;;;;0.31;100.00;96685.53;5037212;28;20437;-76
2022/01/20 10:21:38;;;;;;;2.63;1.77;;;;;;;-0.86;100.00;96703.53;5052347;28;20471;-76
2022/01/20 10:24:41;;;;;;;3.40;1.97;;;;;;;-0.96;100.00;96727.56;5004240;28;20942;-75
2022/01/20 10:27:11;;;;;;;2.20;2.00;;;;;;;-1.40;100.00;96684.50;5042459;28;20453;-75
2022/01/20 10:29:40;;;;;;;1.20;1.10;;;;;;;-1.32;100.00;96712.63;5051918;28;20433;-75
2022/01/20 10:32:21;;;;;;;3.93;2.03;;;;;;;-1.57;100.00;96663.81;5052387;28;20499;-75
2022/01/20 10:34:47;;;;;;;3.27;1.10;;;;;;;-1.40;100.00;96684.50;5035141;28;20964;-75
2022/01/20 10:37:23;;;;;;;3.43;1.50;;;;;;;-1.25;100.00;96698.44;5035165;28;20527;-75
2022/01/20 10:40:14;;;;;;;6.10;1.10;;;;;;;-1.28;100.00;96690.38;5051593;28;20878;-76
2022/01/20 10:42:46;;;;;;;16.13;1.87;;;;;;;-1.34;100.00;96701.69;5035696;28;21004;-75
2022/01/20 10:45:22;;;;;;;6.70;1.63;;;;;;;-1.11;100.00;96719.59;5051513;28;20445;-76
2022/01/20 10:47:51;;;;;;;3.10;1.57;;;;;;;-1.10;100.00;96721.19;5035179;28;20467;-76
2022/01/20 10:50:24;;;;;;;2.63;1.27;;;;;;;-1.23;100.00;96695.59;5035597;28;20453;-76
2022/01/20 10:52:56;;;;;;;4.73;1.67;;;;;;;-1.09;100.00;96675.25;5052006;28;20520;-76
2022/01/20 10:55:27;;;;;;;4.10;1.47;;;;;;;-0.80;100.00;96697.41;5035139;28;20449;-76
2022/01/20 10:58:11;;;;;;;1.20;1.10;;;;;;;-0.83;100.00;96697.84;5052183;28;20836;-76
2022/01/20 11:00:57;;;;;;;7.03;1.43;;;;;;;-0.97;100.00;96642.97;5035367;28;20864;-76
2022/01/20 11:03:27;;;;;;;7.13;1.67;;;;;;;-0.55;100.00;96691.63;5051765;28;20445;-75
2022/01/20 11:05:57;;;;;;;4.93;1.30;;;;;;;-0.60;100.00;96671.63;5051537;28;20433;-76
2022/01/20 11:08:38;;;;;;;3.60;1.90;;;;;;;-0.36;100.00;96699.88;5051882;28;20845;-75
2022/01/20 11:11:06;;;;;;;7.90;2.03;;;;;;;-0.27;100.00;96671.63;5051516;28;20441;-75
2022/01/20 11:14:11;;;;;;;2.93;1.40;;;;;;;-0.27;100.00;96680.19;5041889;28;20441;-75
2022/01/20 11:16:39;;;;;;;5.17;2.40;;;;;;;-0.16;100.00;96687.03;5050928;28;20507;-75
2022/01/20 11:19:21;;;;;;;3.43;1.63;;;;;;;-0.10;100.00;96683.47;5051050;28;20452;-75
2022/01/20 11:21:49;;;;;;;7.73;1.40;;;;;;;-0.40;100.00;96670.22;5051358;28;20433;-75
2022/01/20 11:24:24;;;;;;;5.40;1.80;;;;;;;-0.40;100.00;96652.03;5051281;28;20495;-75
2022/01/20 11:27:14;;;;;;;1.90;1.70;;;;;;;-0.25;100.00;96666.97;5051419;28;20461;-75
2022/01/20 11:30:16;;;;;;;3.50;1.87;;;;;;;-0.23;100.00;96696.09;5029977;28;20438;-75
2022/01/20 11:33:02;;;;;;;11.50;2.10;;;;;;;-0.13;100.00;96696.94;5033057;28;20523;-75
2022/01/20 11:35:38;;;;;;;35.27;3.33;;;;;;;-0.09;100.00;96700.63;5050392;28;20441;-75
2022/01/20 11:38:06;;;;;;;4.37;2.30;;;;;;;0.16;100.00;96688.84;5050734;28;20586;-75
2022/01/20 11:40:32;;;;;;;1.83;1.40;;;;;;;-0.15;100.00;96682.63;5034113;28;20494;-74
2022/01/20 11:43:08;;;;;;;2.40;1.60;;;;;;;-0.04;100.00;96703.25;5050529;28;20472;-75
2022/01/20 11:45:41;;;;;;;1.83;1.07;;;;;;;-0.11;100.00;96689.69;5050766;28;20433;-74
2022/01/20 11:48:24;;;;;;;1.93;1.67;;;;;;;0.03;100.00;96697.06;5033957;28;20458;-74
2022/01/20 11:51:08;;;;;;;2.33;1.30;;;;;;;0.04;100.00;96691.59;5052062;28;20524;-75
2022/01/20 11:53:41;;;;;;;3.93;1.97;;;;;;;0.06;100.00;96696.56;5050636;28;20524;-75
2022/01/20 11:56:09;;;;;;;2.13;1.30;;;;;;;0.05;100.00;96697.59;5050622;28;20453;-74
2022/01/20 11:58:36;;;;;;;4.00;1.70;;;;;;;-0.18;100.00;96678.72;5051962;28;20481;-74
2022/01/20 12:01:06;;;;;;;6.93;3.27;;;;;;;-0.04;100.00;96698.03;5050149;28;20540;-74
2022/01/20 12:03:35;;;;;;;3.37;1.77;;;;;;;0.08;100.00;96697.09;5050258;28;20848;-74
2022/01/20 12:06:09;;;;;;;4.27;1.70;;;;;;;-0.16;100.00;96662.88;5035569;28;20508;-74
2022/01/20 12:09:00;;;;;;;6.30;2.17;;;;;;;0.08;100.00;96684.09;5055832;28;20495;-74
2022/01/20 12:11:54;;;;;;;3.23;1.80;;;;;;;0.37;100.00;96689.72;5055543;28;20791;-74
2022/01/20 12:14:35;;;;;;;6.80;1.37;;;;;;;0.17;100.00;96677.41;5036558;28;20962;-74
2022/01/20 12:17:11;;;;;;;2.60;2.13;;;;;;;0.15;100.00;96676.88;5053993;28;21078;-74
2022/01/20 12:19:38;;;;;;;1.97;1.73;;;;;;;0.14;100.00;96696.88;5054261;28;20527;-74
2022/01/20 12:22:07;;;;;;;1.83;1.43;;;;;;;0.31;100.00;96712.31;5037805;28;20444;-74
2022/01/20 12:24:35;;;;;;;3.43;1.70;;;;;;;0.37;100.00;96710.53;5037866;28;20520;-74
2022/01/20 12:27:17;;;;;;;7.00;1.60;;;;;;;0.25;100.00;96700.31;5037377;28;20453;-74
2022/01/20 12:29:44;;;;;;;9.00;1.80;;;;;;;0.31;100.00;96695.94;5037271;28;20429;-74
2022/01/20 12:32:13;;;;;;;9.90;2.10;;;;;;;0.46;100.00;96694.19;5053860;28;20441;-74
2022/01/20 12:34:40;;;;;;;6.83;2.17;;;;;;;0.27;100.00;96693.84;5037179;28;20498;-74
2022/01/20 12:37:07;;;;;;;7.10;1.50;;;;;;;0.25;100.00;96689.91;5037157;28;20477;-74
2022/01/20 12:39:37;;;;;;;2.13;1.30;;;;;;;0.29;100.00;96683.97;5036939;28;20472;-74
2022/01/20 12:42:05;;;;;;;7.10;2.70;;;;;;;0.42;100.00;96659.34;5036948;28;20451;-74
2022/01/20 12:44:49;;;;;;;5.03;1.10;;;;;;;0.37;100.00;96663.72;5054747;28;21021;-74
2022/01/20 12:47:26;;;;;;;8.70;1.50;;;;;;;0.45;100.00;96674.44;5036905;28;20452;-74
2022/01/20 12:50:00;;;;;;;4.13;1.63;;;;;;;0.25;100.00;96659.50;5054944;28;20865;-74
2022/01/20 12:52:27;;;;;;;4.07;1.90;;;;;;;0.23;100.00;96660.78;5053571;28;20555;-74
2022/01/20 12:54:54;;;;;;;1.77;1.40;;;;;;;0.24;100.00;96683.16;5053358;28;20535;-74
2022/01/20 12:57:21;;;;;;;3.80;1.40;;;;;;;0.35;100.00;96704.78;5052937;28;20862;-74
2022/01/20 12:59:47;;;;;;;5.80;1.87;;;;;;;0.29;100.00;96707.38;5053214;28;20799;-74